sensor_id;sensor_type;location;lat;lon;timestamp;pressure;altitude;pressure_sealevel;temperature;humidity
59588;BME280;45412;54.472;18.464;2022-11-15T00:00:10;100104.21;;;5.62;99.56
59588;BME280;45412;54.472;18.464;2022-11-15T00:03:22;100096.95;;;5.66;99.38
59588;BME280;45412;54.472;18.464;2022-11-15T00:06:28;100096.55;;;5.73;99.30
59588;BME280;45412;54.472;18.464;2022-11-15T00:09:35;100094.02;;;5.77;99.05
59588;BME280;45412;54.472;18.464;2022-11-15T00:12:41;100094.62;;;5.79;98.87
59588;BME280;45412;54.472;18.464;2022-11-15T00:15:48;100094.28;;;5.79;98.68
59588;BME280;45412;54.472;18.464;2022-11-15T00:18:54;100088.94;;;5.80;98.88
59588;BME280;45412;54.472;18.464;2022-11-15T00:22:00;100087.55;;;5.79;98.61
59588;BME280;45412;54.472;18.464;2022-11-15T00:25:07;100085.55;;;5.84;98.83
59588;BME280;45412;54.472;18.464;2022-11-15T00:28:13;100089.67;;;5.86;98.68
59588;BME280;45412;54.472;18.464;2022-11-15T00:31:20;100084.95;;;5.85;98.62
59588;BME280;45412;54.472;18.464;2022-11-15T00:34:26;100082.92;;;5.84;98.59
59588;BME280;45412;54.472;18.464;2022-11-15T00:37:33;100081.41;;;5.86;98.66
59588;BME280;45412;54.472;18.464;2022-11-15T00:40:39;100083.87;;;5.83;98.69
59588;BME280;45412;54.472;18.464;2022-11-15T00:43:45;100080.92;;;5.82;98.83
59588;BME280;45412;54.472;18.464;2022-11-15T00:46:51;100078.64;;;5.81;98.94
59588;BME280;45412;54.472;18.464;2022-11-15T00:49:57;100079.14;;;5.82;98.77
59588;BME280;45412;54.472;18.464;2022-11-15T00:53:04;100071.34;;;5.86;98.88
59588;BME280;45412;54.472;18.464;2022-11-15T00:56:10;100066.61;;;5.88;99.09
59588;BME280;45412;54.472;18.464;2022-11-15T00:59:17;100066.13;;;5.91;98.92
59588;BME280;45412;54.472;18.464;2022-11-15T01:02:23;100060.21;;;5.90;98.96
59588;BME280;45412;54.472;18.464;2022-11-15T01:05:30;100058.25;;;5.84;99.20
59588;BME280;45412;54.472;18.464;2022-11-15T01:08:38;100052.64;;;5.80;99.18
59588;BME280;45412;54.472;18.464;2022-11-15T01:11:45;100049.45;;;5.81;99.29
59588;BME280;45412;54.472;18.464;2022-11-15T01:14:51;100048.41;;;5.80;99.50
59588;BME280;45412;54.472;18.464;2022-11-15T01:17:57;100046.11;;;5.78;99.63
59588;BME280;45412;54.472;18.464;2022-11-15T01:21:10;100041.23;;;5.77;99.94
59588;BME280;45412;54.472;18.464;2022-11-15T01:24:17;100041.39;;;5.74;99.84
59588;BME280;45412;54.472;18.464;2022-11-15T01:27:23;100031.34;;;5.71;99.91
59588;BME280;45412;54.472;18.464;2022-11-15T01:30:30;100028.27;;;5.66;100.00
59588;BME280;45412;54.472;18.464;2022-11-15T01:33:36;100027.69;;;5.67;100.00
59588;BME280;45412;54.472;18.464;2022-11-15T01:36:43;100022.20;;;5.65;100.00
59588;BME280;45412;54.472;18.464;2022-11-15T01:39:49;100015.92;;;5.64;100.00
59588;BME280;45412;54.472;18.464;2022-11-15T01:42:56;100003.50;;;5.66;100.00
59588;BME280;45412;54.472;18.464;2022-11-15T01:46:36;100003.23;;;5.67;99.96
59588;BME280;45412;54.472;18.464;2022-11-15T01:52:59;99997.33;;;5.72;100.00
59588;BME280;45412;54.472;18.464;2022-11-15T01:56:14;99995.27;;;5.74;100.00
59588;BME280;45412;54.472;18.464;2022-11-15T01:59:22;99984.90;;;5.74;100.00
59588;BME280;45412;54.472;18.464;2022-11-15T02:02:29;99980.84;;;5.74;100.00
59588;BME280;45412;54.472;18.464;2022-11-15T02:05:36;99977.64;;;5.77;100.00
59588;BME280;45412;54.472;18.464;2022-11-15T02:08:44;99976.52;;;5.78;100.00
59588;BME280;45412;54.472;18.464;2022-11-15T02:11:52;99965.38;;;5.76;100.00
59588;BME280;45412;54.472;18.464;2022-11-15T02:15:01;99961.59;;;5.75;100.00
59588;BME280;45412;54.472;18.464;2022-11-15T02:18:24;99959.97;;;5.72;100.00
59588;BME280;45412;54.472;18.464;2022-11-15T02:32:36;99950.32;;;5.51;100.00
59588;BME280;45412;54.472;18.464;2022-11-15T02:36:06;99947.55;;;5.50;100.00
59588;BME280;45412;54.472;18.464;2022-11-15T02:43:09;99942.98;;;5.50;100.00
59588;BME280;45412;54.472;18.464;2022-11-15T02:50:13;99946.76;;;5.52;100.00
59588;BME280;45412;54.472;18.464;2022-11-15T02:53:25;99942.48;;;5.55;100.00
59588;BME280;45412;54.472;18.464;2022-11-15T02:56:32;99939.02;;;5.57;100.00
59588;BME280;45412;54.472;18.464;2022-11-15T03:00:05;99934.52;;;5.56;100.00
59588;BME280;45412;54.472;18.464;2022-11-15T03:11:07;99923.13;;;5.43;100.00
59588;BME280;45412;54.472;18.464;2022-11-15T03:17:35;99912.67;;;5.48;100.00
59588;BME280;45412;54.472;18.464;2022-11-15T03:20:44;99909.40;;;5.46;100.00
59588;BME280;45412;54.472;18.464;2022-11-15T03:23:52;99910.77;;;5.44;100.00
59588;BME280;45412;54.472;18.464;2022-11-15T03:27:01;99910.27;;;5.40;100.00
59588;BME280;45412;54.472;18.464;2022-11-15T03:30:10;99909.80;;;5.40;100.00
59588;BME280;45412;54.472;18.464;2022-11-15T03:33:18;99904.50;;;5.40;100.00
59588;BME280;45412;54.472;18.464;2022-11-15T03:36:26;99906.04;;;5.40;100.00
59588;BME280;45412;54.472;18.464;2022-11-15T03:39:33;99898.98;;;5.38;100.00
59588;BME280;45412;54.472;18.464;2022-11-15T03:42:49;99900.70;;;5.36;100.00
59588;BME280;45412;54.472;18.464;2022-11-15T03:46:14;99900.90;;;5.38;100.00
59588;BME280;45412;54.472;18.464;2022-11-15T03:49:33;99900.91;;;5.41;100.00
59588;BME280;45412;54.472;18.464;2022-11-15T03:52:41;99897.12;;;5.40;100.00
59588;BME280;45412;54.472;18.464;2022-11-15T03:55:48;99891.91;;;5.38;100.00
59588;BME280;45412;54.472;18.464;2022-11-15T03:58:55;99890.28;;;5.39;100.00
59588;BME280;45412;54.472;18.464;2022-11-15T04:02:01;99893.23;;;5.37;100.00
59588;BME280;45412;54.472;18.464;2022-11-15T04:05:08;99891.71;;;5.33;100.00
59588;BME280;45412;54.472;18.464;2022-11-15T04:08:14;99896.46;;;5.30;100.00
59588;BME280;45412;54.472;18.464;2022-11-15T04:11:20;99895.78;;;5.26;100.00
59588;BME280;45412;54.472;18.464;2022-11-15T04:14:27;99896.68;;;5.20;100.00
59588;BME280;45412;54.472;18.464;2022-11-15T04:17:47;99892.94;;;5.15;100.00
59588;BME280;45412;54.472;18.464;2022-11-15T04:20:54;99889.13;;;5.14;100.00
59588;BME280;45412;54.472;18.464;2022-11-15T04:24:18;99890.55;;;5.13;100.00
59588;BME280;45412;54.472;18.464;2022-11-15T04:27:25;99890.40;;;5.13;100.00
59588;BME280;45412;54.472;18.464;2022-11-15T04:30:31;99891.51;;;5.15;100.00
59588;BME280;45412;54.472;18.464;2022-11-15T04:33:38;99891.86;;;5.18;100.00
59588;BME280;45412;54.472;18.464;2022-11-15T04:36:44;99892.50;;;5.20;100.00
59588;BME280;45412;54.472;18.464;2022-11-15T04:40:09;99892.17;;;5.16;100.00
59588;BME280;45412;54.472;18.464;2022-11-15T04:43:16;99892.33;;;5.13;100.00
59588;BME280;45412;54.472;18.464;2022-11-15T04:46:23;99884.53;;;5.11;100.00
59588;BME280;45412;54.472;18.464;2022-11-15T04:49:30;99877.70;;;5.11;100.00
59588;BME280;45412;54.472;18.464;2022-11-15T04:52:36;99876.34;;;5.09;100.00
59588;BME280;45412;54.472;18.464;2022-11-15T04:55:46;99871.04;;;5.04;100.00
59588;BME280;45412;54.472;18.464;2022-11-15T04:58:52;99874.23;;;5.03;100.00
59588;BME280;45412;54.472;18.464;2022-11-15T05:01:58;99876.58;;;5.09;100.00
59588;BME280;45412;54.472;18.464;2022-11-15T05:05:05;99870.85;;;5.07;100.00
59588;BME280;45412;54.472;18.464;2022-11-15T05:08:12;99875.61;;;5.10;100.00
59588;BME280;45412;54.472;18.464;2022-11-15T05:11:18;99871.45;;;5.09;100.00
59588;BME280;45412;54.472;18.464;2022-11-15T05:14:24;99869.28;;;5.10;100.00
59588;BME280;45412;54.472;18.464;2022-11-15T05:17:31;99870.77;;;5.15;100.00
59588;BME280;45412;54.472;18.464;2022-11-15T05:20:38;99870.05;;;5.21;100.00
59588;BME280;45412;54.472;18.464;2022-11-15T05:23:44;99872.71;;;5.24;100.00
59588;BME280;45412;54.472;18.464;2022-11-15T05:26:50;99872.98;;;5.31;100.00
59588;BME280;45412;54.472;18.464;2022-11-15T05:29:57;99869.12;;;5.34;100.00
59588;BME280;45412;54.472;18.464;2022-11-15T05:33:03;99871.88;;;5.32;100.00
59588;BME280;45412;54.472;18.464;2022-11-15T05:36:34;99873.90;;;5.27;100.00
59588;BME280;45412;54.472;18.464;2022-11-15T05:39:41;99871.29;;;5.30;100.00
59588;BME280;45412;54.472;18.464;2022-11-15T05:42:48;99869.02;;;5.36;100.00
59588;BME280;45412;54.472;18.464;2022-11-15T05:45:54;99871.71;;;5.41;100.00
59588;BME280;45412;54.472;18.464;2022-11-15T05:49:01;99872.33;;;5.42;100.00
59588;BME280;45412;54.472;18.464;2022-11-15T05:52:12;99875.17;;;5.42;100.00
59588;BME280;45412;54.472;18.464;2022-11-15T05:55:21;99872.83;;;5.46;100.00
59588;BME280;45412;54.472;18.464;2022-11-15T05:58:28;99870.23;;;5.51;100.00
59588;BME280;45412;54.472;18.464;2022-11-15T06:01:38;99863.83;;;5.52;100.00
59588;BME280;45412;54.472;18.464;2022-11-15T06:04:45;99865.34;;;5.53;100.00
59588;BME280;45412;54.472;18.464;2022-11-15T06:07:51;99864.05;;;5.54;100.00
59588;BME280;45412;54.472;18.464;2022-11-15T06:11:04;99866.04;;;5.53;100.00
59588;BME280;45412;54.472;18.464;2022-11-15T06:14:11;99870.13;;;5.50;100.00
59588;BME280;45412;54.472;18.464;2022-11-15T06:17:17;99876.21;;;5.51;100.00
59588;BME280;45412;54.472;18.464;2022-11-15T06:20:29;99877.11;;;5.51;100.00
59588;BME280;45412;54.472;18.464;2022-11-15T06:23:35;99876.88;;;5.52;100.00
59588;BME280;45412;54.472;18.464;2022-11-15T06:26:42;99868.70;;;5.56;100.00
59588;BME280;45412;54.472;18.464;2022-11-15T06:29:48;99876.50;;;5.61;100.00
59588;BME280;45412;54.472;18.464;2022-11-15T06:33:03;99874.14;;;5.65;100.00
59588;BME280;45412;54.472;18.464;2022-11-15T06:36:12;99878.96;;;5.64;100.00
59588;BME280;45412;54.472;18.464;2022-11-15T06:39:22;99880.30;;;5.62;100.00
59588;BME280;45412;54.472;18.464;2022-11-15T06:42:29;99883.44;;;5.63;100.00
59588;BME280;45412;54.472;18.464;2022-11-15T06:45:35;99882.02;;;5.63;100.00
59588;BME280;45412;54.472;18.464;2022-11-15T06:48:42;99878.05;;;5.61;100.00
59588;BME280;45412;54.472;18.464;2022-11-15T06:51:48;99874.66;;;5.62;100.00
59588;BME280;45412;54.472;18.464;2022-11-15T06:54:54;99875.02;;;5.65;100.00
59588;BME280;45412;54.472;18.464;2022-11-15T06:58:01;99868.09;;;5.72;100.00
59588;BME280;45412;54.472;18.464;2022-11-15T07:01:10;99874.73;;;5.75;100.00
59588;BME280;45412;54.472;18.464;2022-11-15T07:04:17;99873.64;;;5.76;99.98
59588;BME280;45412;54.472;18.464;2022-11-15T07:07:23;99876.58;;;5.77;99.88
59588;BME280;45412;54.472;18.464;2022-11-15T07:10:30;99881.43;;;5.75;99.63
59588;BME280;45412;54.472;18.464;2022-11-15T07:13:36;99881.69;;;5.74;99.69
59588;BME280;45412;54.472;18.464;2022-11-15T07:16:43;99879.05;;;5.74;99.89
59588;BME280;45412;54.472;18.464;2022-11-15T07:19:50;99876.00;;;5.75;99.68
59588;BME280;45412;54.472;18.464;2022-11-15T07:23:01;99878.53;;;5.77;99.77
59588;BME280;45412;54.472;18.464;2022-11-15T07:26:08;99877.75;;;5.78;99.42
59588;BME280;45412;54.472;18.464;2022-11-15T07:29:15;99876.77;;;5.80;99.44
59588;BME280;45412;54.472;18.464;2022-11-15T07:32:22;99874.17;;;5.82;99.02
59588;BME280;45412;54.472;18.464;2022-11-15T07:35:29;99874.86;;;5.86;99.05
59588;BME280;45412;54.472;18.464;2022-11-15T07:38:35;99880.90;;;5.88;98.92
59588;BME280;45412;54.472;18.464;2022-11-15T07:41:48;99881.08;;;5.87;98.47
59588;BME280;45412;54.472;18.464;2022-11-15T07:44:56;99875.16;;;5.89;98.25
59588;BME280;45412;54.472;18.464;2022-11-15T07:48:02;99875.34;;;5.92;98.52
59588;BME280;45412;54.472;18.464;2022-11-15T07:51:12;99880.39;;;5.93;97.97
59588;BME280;45412;54.472;18.464;2022-11-15T07:54:20;99878.45;;;5.96;97.40
59588;BME280;45412;54.472;18.464;2022-11-15T07:57:26;99879.56;;;5.98;97.26
59588;BME280;45412;54.472;18.464;2022-11-15T08:00:35;99876.33;;;6.03;97.07
59588;BME280;45412;54.472;18.464;2022-11-15T08:03:41;99874.80;;;6.07;97.25
59588;BME280;45412;54.472;18.464;2022-11-15T08:06:48;99872.20;;;6.09;96.48
59588;BME280;45412;54.472;18.464;2022-11-15T08:09:54;99866.81;;;6.08;96.23
59588;BME280;45412;54.472;18.464;2022-11-15T08:13:10;99871.86;;;6.06;96.23
59588;BME280;45412;54.472;18.464;2022-11-15T08:16:19;99873.25;;;6.04;96.25
59588;BME280;45412;54.472;18.464;2022-11-15T08:19:26;99872.80;;;6.08;96.26
59588;BME280;45412;54.472;18.464;2022-11-15T08:22:33;99881.79;;;6.14;96.60
59588;BME280;45412;54.472;18.464;2022-11-15T08:25:39;99882.86;;;6.19;96.37
59588;BME280;45412;54.472;18.464;2022-11-15T08:28:46;99881.52;;;6.24;96.31
59588;BME280;45412;54.472;18.464;2022-11-15T08:31:55;99886.46;;;6.26;95.87
59588;BME280;45412;54.472;18.464;2022-11-15T08:35:02;99883.67;;;6.29;95.85
59588;BME280;45412;54.472;18.464;2022-11-15T08:38:09;99883.85;;;6.29;95.67
59588;BME280;45412;54.472;18.464;2022-11-15T08:41:30;99878.32;;;6.27;95.67
59588;BME280;45412;54.472;18.464;2022-11-15T08:44:36;99875.95;;;6.23;95.36
59588;BME280;45412;54.472;18.464;2022-11-15T08:47:43;99871.27;;;6.22;95.67
59588;BME280;45412;54.472;18.464;2022-11-15T08:50:56;99867.75;;;6.24;95.49
59588;BME280;45412;54.472;18.464;2022-11-15T08:54:03;99863.23;;;6.26;95.92
59588;BME280;45412;54.472;18.464;2022-11-15T08:57:10;99870.15;;;6.25;95.56
59588;BME280;45412;54.472;18.464;2022-11-15T09:00:17;99871.98;;;6.24;95.77
59588;BME280;45412;54.472;18.464;2022-11-15T09:03:26;99867.15;;;6.22;95.41
59588;BME280;45412;54.472;18.464;2022-11-15T09:06:32;99864.78;;;6.24;96.19
59588;BME280;45412;54.472;18.464;2022-11-15T09:09:38;99864.44;;;6.26;95.68
59588;BME280;45412;54.472;18.464;2022-11-15T09:12:44;99863.41;;;6.26;95.44
59588;BME280;45412;54.472;18.464;2022-11-15T09:15:58;99867.58;;;6.24;95.04
59588;BME280;45412;54.472;18.464;2022-11-15T09:19:06;99872.29;;;6.19;94.74
59588;BME280;45412;54.472;18.464;2022-11-15T09:22:17;99875.54;;;6.21;95.00
59588;BME280;45412;54.472;18.464;2022-11-15T09:25:24;99875.75;;;6.23;95.20
59588;BME280;45412;54.472;18.464;2022-11-15T09:28:31;99876.98;;;6.20;95.09
59588;BME280;45412;54.472;18.464;2022-11-15T09:31:39;99867.33;;;6.11;94.61
59588;BME280;45412;54.472;18.464;2022-11-15T09:34:45;99869.02;;;6.06;94.90
59588;BME280;45412;54.472;18.464;2022-11-15T09:37:52;99867.04;;;6.07;95.22
59588;BME280;45412;54.472;18.464;2022-11-15T09:45:08;99868.06;;;6.22;95.32
59588;BME280;45412;54.472;18.464;2022-11-15T09:51:49;99867.71;;;6.30;95.19
59588;BME280;45412;54.472;18.464;2022-11-15T09:54:47;99865.02;;;6.34;95.27
59588;BME280;45412;54.472;18.464;2022-11-15T09:57:57;99865.42;;;6.39;94.90
59588;BME280;45412;54.472;18.464;2022-11-15T10:00:49;99862.44;;;6.44;95.15
59588;BME280;45412;54.472;18.464;2022-11-15T10:03:40;99858.27;;;6.49;94.47
59588;BME280;45412;54.472;18.464;2022-11-15T10:06:31;99855.29;;;6.52;94.35
59588;BME280;45412;54.472;18.464;2022-11-15T10:09:26;99851.41;;;6.54;94.08
59588;BME280;45412;54.472;18.464;2022-11-15T10:12:17;99848.26;;;6.59;94.35
59588;BME280;45412;54.472;18.464;2022-11-15T10:15:14;99847.89;;;6.59;93.78
59588;BME280;45412;54.472;18.464;2022-11-15T10:21:18;99844.09;;;6.56;94.13
59588;BME280;45412;54.472;18.464;2022-11-15T10:24:12;99831.77;;;6.61;94.32
59588;BME280;45412;54.472;18.464;2022-11-15T10:27:00;99825.92;;;6.61;93.68
59588;BME280;45412;54.472;18.464;2022-11-15T10:29:50;99824.27;;;6.62;93.69
59588;BME280;45412;54.472;18.464;2022-11-15T10:32:39;99824.60;;;6.62;93.61
59588;BME280;45412;54.472;18.464;2022-11-15T10:35:29;99825.35;;;6.62;94.15
59588;BME280;45412;54.472;18.464;2022-11-15T10:38:18;99824.75;;;6.63;94.18
59588;BME280;45412;54.472;18.464;2022-11-15T10:41:10;99821.39;;;6.63;93.92
59588;BME280;45412;54.472;18.464;2022-11-15T10:47:22;99830.69;;;6.64;94.20
59588;BME280;45412;54.472;18.464;2022-11-15T10:50:31;99827.02;;;6.63;94.20
59588;BME280;45412;54.472;18.464;2022-11-15T10:53:26;99822.67;;;6.62;94.22
59588;BME280;45412;54.472;18.464;2022-11-15T10:56:21;99817.52;;;6.60;94.20
59588;BME280;45412;54.472;18.464;2022-11-15T10:59:31;99817.34;;;6.55;94.47
59588;BME280;45412;54.472;18.464;2022-11-15T11:02:31;99825.02;;;6.51;94.69
59588;BME280;45412;54.472;18.464;2022-11-15T11:11:05;99826.41;;;6.51;94.97
59588;BME280;45412;54.472;18.464;2022-11-15T11:13:53;99827.17;;;6.55;95.11
59588;BME280;45412;54.472;18.464;2022-11-15T11:16:55;99824.79;;;6.57;94.97
59588;BME280;45412;54.472;18.464;2022-11-15T11:20:05;99822.00;;;6.62;96.23
59588;BME280;45412;54.472;18.464;2022-11-15T11:30:16;99811.33;;;6.77;95.51
59588;BME280;45412;54.472;18.464;2022-11-15T11:46:52;99792.08;;;6.86;94.19
59588;BME280;45412;54.472;18.464;2022-11-15T11:49:52;99791.21;;;6.88;94.46
59588;BME280;45412;54.472;18.464;2022-11-15T11:53:27;99792.57;;;6.91;94.26
59588;BME280;45412;54.472;18.464;2022-11-15T11:56:28;99789.33;;;7.00;95.34
59588;BME280;45412;54.472;18.464;2022-11-15T11:59:59;99784.81;;;7.07;93.99
59588;BME280;45412;54.472;18.464;2022-11-15T12:02:43;99783.45;;;7.06;93.66
59588;BME280;45412;54.472;18.464;2022-11-15T12:05:46;99780.98;;;7.06;93.91
59588;BME280;45412;54.472;18.464;2022-11-15T12:08:53;99777.42;;;7.07;93.49
59588;BME280;45412;54.472;18.464;2022-11-15T12:12:01;99776.27;;;7.06;93.23
59588;BME280;45412;54.472;18.464;2022-11-15T12:17:56;99774.23;;;6.99;92.73
59588;BME280;45412;54.472;18.464;2022-11-15T12:21:00;99774.26;;;6.96;92.85
59588;BME280;45412;54.472;18.464;2022-11-15T12:23:58;99775.27;;;6.94;93.08
59588;BME280;45412;54.472;18.464;2022-11-15T12:27:30;99782.86;;;6.91;93.13
59588;BME280;45412;54.472;18.464;2022-11-15T12:30:21;99784.79;;;6.89;93.16
59588;BME280;45412;54.472;18.464;2022-11-15T12:33:47;99785.17;;;6.86;93.38
59588;BME280;45412;54.472;18.464;2022-11-15T12:36:43;99780.55;;;6.84;93.39
59588;BME280;45412;54.472;18.464;2022-11-15T12:46:05;99780.71;;;6.84;93.49
59588;BME280;45412;54.472;18.464;2022-11-15T12:52:10;99779.49;;;6.84;93.61
59588;BME280;45412;54.472;18.464;2022-11-15T12:54:59;99780.28;;;6.82;93.46
59588;BME280;45412;54.472;18.464;2022-11-15T12:57:47;99780.34;;;6.81;93.95
59588;BME280;45412;54.472;18.464;2022-11-15T13:00:37;99776.29;;;6.81;94.00
59588;BME280;45412;54.472;18.464;2022-11-15T13:03:26;99775.82;;;6.80;94.09
59588;BME280;45412;54.472;18.464;2022-11-15T13:18:27;99763.75;;;6.82;94.22
59588;BME280;45412;54.472;18.464;2022-11-15T13:21:24;99757.46;;;6.78;94.52
59588;BME280;45412;54.472;18.464;2022-11-15T13:24:31;99754.17;;;6.75;94.25
59588;BME280;45412;54.472;18.464;2022-11-15T13:27:19;99756.70;;;6.71;94.27
59588;BME280;45412;54.472;18.464;2022-11-15T13:30:20;99757.16;;;6.59;94.24
59588;BME280;45412;54.472;18.464;2022-11-15T13:33:41;99751.39;;;6.53;94.64
59588;BME280;45412;54.472;18.464;2022-11-15T13:36:32;99751.13;;;6.49;94.92
59588;BME280;45412;54.472;18.464;2022-11-15T13:39:33;99747.92;;;6.46;95.12
59588;BME280;45412;54.472;18.464;2022-11-15T13:42:28;99750.52;;;6.44;95.00
59588;BME280;45412;54.472;18.464;2022-11-15T13:45:18;99748.26;;;6.44;95.84
59588;BME280;45412;54.472;18.464;2022-11-15T13:48:07;99748.70;;;6.42;96.04
59588;BME280;45412;54.472;18.464;2022-11-15T13:50:56;99748.98;;;6.44;96.56
59588;BME280;45412;54.472;18.464;2022-11-15T13:53:51;99749.58;;;6.45;96.34
59588;BME280;45412;54.472;18.464;2022-11-15T13:59:52;99756.48;;;6.45;96.16
59588;BME280;45412;54.472;18.464;2022-11-15T14:02:41;99752.13;;;6.44;96.38
59588;BME280;45412;54.472;18.464;2022-11-15T14:05:28;99751.58;;;6.44;96.40
59588;BME280;45412;54.472;18.464;2022-11-15T14:08:24;99752.71;;;6.45;96.56
59588;BME280;45412;54.472;18.464;2022-11-15T14:11:18;99749.41;;;6.37;96.07
59588;BME280;45412;54.472;18.464;2022-11-15T14:16:59;99744.38;;;6.17;97.27
59588;BME280;45412;54.472;18.464;2022-11-15T14:19:47;99739.94;;;6.09;97.60
59588;BME280;45412;54.472;18.464;2022-11-15T14:22:34;99743.45;;;6.04;98.06
59588;BME280;45412;54.472;18.464;2022-11-15T14:25:27;99740.91;;;6.02;98.66
59588;BME280;45412;54.472;18.464;2022-11-15T14:31:12;99742.58;;;5.98;99.31
59588;BME280;45412;54.472;18.464;2022-11-15T14:34:03;99741.20;;;5.91;99.56
59588;BME280;45412;54.472;18.464;2022-11-15T14:36:51;99744.67;;;5.81;99.97
59588;BME280;45412;54.472;18.464;2022-11-15T14:39:38;99741.96;;;5.76;99.96
59588;BME280;45412;54.472;18.464;2022-11-15T14:42:26;99741.87;;;5.72;100.00
59588;BME280;45412;54.472;18.464;2022-11-15T14:45:21;99739.17;;;5.68;100.00
59588;BME280;45412;54.472;18.464;2022-11-15T14:48:08;99739.92;;;5.61;100.00
59588;BME280;45412;54.472;18.464;2022-11-15T14:50:59;99740.05;;;5.59;100.00
59588;BME280;45412;54.472;18.464;2022-11-15T14:53:47;99741.27;;;5.59;100.00
59588;BME280;45412;54.472;18.464;2022-11-15T14:56:35;99743.64;;;5.60;100.00
59588;BME280;45412;54.472;18.464;2022-11-15T14:59:22;99742.79;;;5.55;100.00
59588;BME280;45412;54.472;18.464;2022-11-15T15:02:21;99746.00;;;5.51;100.00
59588;BME280;45412;54.472;18.464;2022-11-15T15:05:17;99742.86;;;5.51;100.00
59588;BME280;45412;54.472;18.464;2022-11-15T15:08:06;99744.45;;;5.47;100.00
59588;BME280;45412;54.472;18.464;2022-11-15T15:10:54;99744.02;;;5.43;100.00
59588;BME280;45412;54.472;18.464;2022-11-15T15:13:42;99741.52;;;5.38;100.00
59588;BME280;45412;54.472;18.464;2022-11-15T15:16:30;99738.21;;;5.34;100.00
59588;BME280;45412;54.472;18.464;2022-11-15T15:19:18;99739.10;;;5.31;100.00
59588;BME280;45412;54.472;18.464;2022-11-15T15:22:05;99736.35;;;5.30;100.00
59588;BME280;45412;54.472;18.464;2022-11-15T15:24:53;99733.05;;;5.32;100.00
59588;BME280;45412;54.472;18.464;2022-11-15T15:27:41;99733.95;;;5.32;100.00
59588;BME280;45412;54.472;18.464;2022-11-15T15:30:30;99736.52;;;5.30;100.00
59588;BME280;45412;54.472;18.464;2022-11-15T15:33:18;99737.80;;;5.32;100.00
59588;BME280;45412;54.472;18.464;2022-11-15T15:36:12;99740.86;;;5.34;100.00
59588;BME280;45412;54.472;18.464;2022-11-15T15:39:00;99732.98;;;5.34;100.00
59588;BME280;45412;54.472;18.464;2022-11-15T15:41:48;99725.21;;;5.34;100.00
59588;BME280;45412;54.472;18.464;2022-11-15T15:44:42;99720.61;;;5.32;100.00
59588;BME280;45412;54.472;18.464;2022-11-15T15:47:29;99723.85;;;5.31;100.00
59588;BME280;45412;54.472;18.464;2022-11-15T15:50:31;99724.50;;;5.32;100.00
59588;BME280;45412;54.472;18.464;2022-11-15T15:53:19;99721.50;;;5.34;100.00
59588;BME280;45412;54.472;18.464;2022-11-15T15:56:08;99726.36;;;5.38;100.00
59588;BME280;45412;54.472;18.464;2022-11-15T15:58:56;99725.36;;;5.40;100.00
59588;BME280;45412;54.472;18.464;2022-11-15T16:01:44;99728.49;;;5.43;100.00
59588;BME280;45412;54.472;18.464;2022-11-15T16:04:32;99725.57;;;5.48;100.00
59588;BME280;45412;54.472;18.464;2022-11-15T16:07:22;99723.63;;;5.51;100.00
59588;BME280;45412;54.472;18.464;2022-11-15T16:10:26;99717.48;;;5.54;100.00
59588;BME280;45412;54.472;18.464;2022-11-15T16:13:15;99714.09;;;5.57;100.00
59588;BME280;45412;54.472;18.464;2022-11-15T16:16:21;99715.50;;;5.60;100.00
59588;BME280;45412;54.472;18.464;2022-11-15T16:19:10;99719.94;;;5.62;100.00
59588;BME280;45412;54.472;18.464;2022-11-15T16:21:58;99717.42;;;5.63;100.00
59588;BME280;45412;54.472;18.464;2022-11-15T16:24:46;99715.30;;;5.66;100.00
59588;BME280;45412;54.472;18.464;2022-11-15T16:27:34;99722.18;;;5.69;99.99
59588;BME280;45412;54.472;18.464;2022-11-15T16:30:25;99731.48;;;5.75;100.00
59588;BME280;45412;54.472;18.464;2022-11-15T16:33:14;99732.63;;;5.79;99.98
59588;BME280;45412;54.472;18.464;2022-11-15T16:36:03;99738.36;;;5.83;99.84
59588;BME280;45412;54.472;18.464;2022-11-15T16:38:52;99735.89;;;5.86;100.00
59588;BME280;45412;54.472;18.464;2022-11-15T16:41:41;99737.79;;;5.87;99.76
59588;BME280;45412;54.472;18.464;2022-11-15T16:44:30;99740.61;;;5.87;99.62
59588;BME280;45412;54.472;18.464;2022-11-15T16:47:18;99741.56;;;5.88;99.65
59588;BME280;45412;54.472;18.464;2022-11-15T16:50:29;99733.59;;;5.89;99.45
59588;BME280;45412;54.472;18.464;2022-11-15T16:53:17;99734.51;;;5.94;99.53
59588;BME280;45412;54.472;18.464;2022-11-15T16:59:16;99728.18;;;6.05;99.68
59588;BME280;45412;54.472;18.464;2022-11-15T17:02:11;99731.84;;;6.09;99.12
59588;BME280;45412;54.472;18.464;2022-11-15T17:04:58;99736.48;;;6.11;99.08
59588;BME280;45412;54.472;18.464;2022-11-15T17:07:50;99736.69;;;6.10;98.98
59588;BME280;45412;54.472;18.464;2022-11-15T17:10:41;99735.78;;;6.08;98.93
59588;BME280;45412;54.472;18.464;2022-11-15T17:13:29;99733.70;;;6.07;99.03
59588;BME280;45412;54.472;18.464;2022-11-15T17:16:19;99732.80;;;6.08;99.01
59588;BME280;45412;54.472;18.464;2022-11-15T17:19:16;99733.69;;;6.10;99.22
59588;BME280;45412;54.472;18.464;2022-11-15T17:22:04;99733.73;;;6.12;99.24
59588;BME280;45412;54.472;18.464;2022-11-15T17:24:52;99732.80;;;6.16;99.55
59588;BME280;45412;54.472;18.464;2022-11-15T17:27:39;99730.15;;;6.19;99.37
59588;BME280;45412;54.472;18.464;2022-11-15T17:30:27;99730.02;;;6.18;98.49
59588;BME280;45412;54.472;18.464;2022-11-15T17:33:15;99729.59;;;6.16;98.61
59588;BME280;45412;54.472;18.464;2022-11-15T17:36:06;99737.29;;;6.18;98.44
59588;BME280;45412;54.472;18.464;2022-11-15T17:38:54;99737.61;;;6.15;98.47
59588;BME280;45412;54.472;18.464;2022-11-15T17:41:46;99739.64;;;6.16;98.99
59588;BME280;45412;54.472;18.464;2022-11-15T17:44:34;99738.92;;;6.17;98.76
59588;BME280;45412;54.472;18.464;2022-11-15T17:47:22;99741.52;;;6.18;98.41